sensor_id;sensor_type;location;lat;lon;timestamp;pressure;altitude;pressure_sealevel;temperature;humidity
84890;BME280;75153;52.222;5.160;2024-01-30T00:01:13;102558.97;;;8.11;82.63
84890;BME280;75153;52.222;5.160;2024-01-30T00:03:39;102555.53;;;8.10;82.58
84890;BME280;75153;52.222;5.160;2024-01-30T00:06:04;102552.31;;;8.08;82.88
84890;BME280;75153;52.222;5.160;2024-01-30T00:08:30;102556.53;;;8.09;83.10
84890;BME280;75153;52.222;5.160;2024-01-30T00:10:55;102542.81;;;8.07;83.67
84890;BME280;75153;52.222;5.160;2024-01-30T00:13:20;102546.44;;;8.06;83.34
84890;BME280;75153;52.222;5.160;2024-01-30T00:15:46;102548.88;;;8.08;83.31
84890;BME280;75153;52.222;5.160;2024-01-30T00:18:11;102550.88;;;8.06;83.14
84890;BME280;75153;52.222;5.160;2024-01-30T00:20:36;102551.13;;;8.04;83.31
84890;BME280;75153;52.222;5.160;2024-01-30T00:23:02;102546.84;;;8.03;83.37
84890;BME280;75153;52.222;5.160;2024-01-30T00:25:27;102550.94;;;7.93;84.60
84890;BME280;75153;52.222;5.160;2024-01-30T00:27:53;102544.63;;;8.00;83.90
84890;BME280;75153;52.222;5.160;2024-01-30T00:30:18;102551.31;;;8.03;83.57
84890;BME280;75153;52.222;5.160;2024-01-30T00:32:44;102550.91;;;7.99;84.10
84890;BME280;75153;52.222;5.160;2024-01-30T00:35:10;102548.66;;;8.09;83.14
84890;BME280;75153;52.222;5.160;2024-01-30T00:37:36;102549.47;;;8.03;83.88
84890;BME280;75153;52.222;5.160;2024-01-30T00:40:02;102532.72;;;8.04;83.32
84890;BME280;75153;52.222;5.160;2024-01-30T00:42:27;102538.78;;;8.05;83.42
84890;BME280;75153;52.222;5.160;2024-01-30T00:44:52;102540.59;;;8.04;83.51
84890;BME280;75153;52.222;5.160;2024-01-30T00:47:18;102537.97;;;8.04;83.59
84890;BME280;75153;52.222;5.160;2024-01-30T00:49:43;102532.72;;;8.04;83.57
84890;BME280;75153;52.222;5.160;2024-01-30T00:52:08;102532.31;;;8.07;83.00
84890;BME280;75153;52.222;5.160;2024-01-30T00:54:34;102531.28;;;8.08;83.29
84890;BME280;75153;52.222;5.160;2024-01-30T00:56:59;102537.16;;;8.10;83.37
84890;BME280;75153;52.222;5.160;2024-01-30T00:59:24;102533.50;;;8.12;83.10
84890;BME280;75153;52.222;5.160;2024-01-30T01:01:50;102531.09;;;8.10;83.55
84890;BME280;75153;52.222;5.160;2024-01-30T01:04:16;102535.13;;;8.13;82.98
84890;BME280;75153;52.222;5.160;2024-01-30T01:06:42;102527.44;;;8.11;83.18
84890;BME280;75153;52.222;5.160;2024-01-30T01:09:10;102518.53;;;8.12;83.04
84890;BME280;75153;52.222;5.160;2024-01-30T01:11:36;102513.91;;;8.07;83.57
84890;BME280;75153;52.222;5.160;2024-01-30T01:14:03;102508.44;;;8.09;83.23
84890;BME280;75153;52.222;5.160;2024-01-30T01:16:28;102501.34;;;8.09;83.35
84890;BME280;75153;52.222;5.160;2024-01-30T01:18:54;102497.94;;;8.09;83.23
84890;BME280;75153;52.222;5.160;2024-01-30T01:21:19;102509.66;;;8.06;83.87
84890;BME280;75153;52.222;5.160;2024-01-30T01:23:44;102515.31;;;8.10;83.12
84890;BME280;75153;52.222;5.160;2024-01-30T01:26:10;102514.50;;;8.09;83.49
84890;BME280;75153;52.222;5.160;2024-01-30T01:28:36;102515.31;;;8.10;83.45
84890;BME280;75153;52.222;5.160;2024-01-30T01:31:01;102520.78;;;8.08;83.48
84890;BME280;75153;52.222;5.160;2024-01-30T01:33:34;102518.75;;;8.10;83.12
84890;BME280;75153;52.222;5.160;2024-01-30T01:36:01;102526.03;;;8.08;82.91
84890;BME280;75153;52.222;5.160;2024-01-30T01:38:28;102514.72;;;8.08;82.89
84890;BME280;75153;52.222;5.160;2024-01-30T01:40:53;102520.59;;;8.10;82.67
84890;BME280;75153;52.222;5.160;2024-01-30T01:43:18;102521.81;;;8.07;82.89
84890;BME280;75153;52.222;5.160;2024-01-30T01:45:45;102516.53;;;8.07;83.20
84890;BME280;75153;52.222;5.160;2024-01-30T01:48:11;102518.16;;;8.08;82.74
84890;BME280;75153;52.222;5.160;2024-01-30T01:50:37;102515.75;;;8.07;82.95
84890;BME280;75153;52.222;5.160;2024-01-30T01:53:03;102518.38;;;8.07;82.79
84890;BME280;75153;52.222;5.160;2024-01-30T01:55:30;102511.72;;;8.04;82.90
84890;BME280;75153;52.222;5.160;2024-01-30T01:57:57;102512.13;;;8.01;83.05
84890;BME280;75153;52.222;5.160;2024-01-30T02:00:23;102501.81;;;8.00;82.81
84890;BME280;75153;52.222;5.160;2024-01-30T02:02:49;102507.06;;;8.00;83.03
84890;BME280;75153;52.222;5.160;2024-01-30T02:05:16;102512.53;;;7.98;83.02
84890;BME280;75153;52.222;5.160;2024-01-30T02:07:42;102514.56;;;7.96;82.85
84890;BME280;75153;52.222;5.160;2024-01-30T02:10:08;102523.84;;;7.92;83.23
84890;BME280;75153;52.222;5.160;2024-01-30T02:12:35;102518.19;;;7.95;83.03
84890;BME280;75153;52.222;5.160;2024-01-30T02:15:00;102496.78;;;7.92;83.34
84890;BME280;75153;52.222;5.160;2024-01-30T02:17:26;102491.34;;;7.93;83.19
84890;BME280;75153;52.222;5.160;2024-01-30T02:19:52;102501.63;;;7.95;82.89
84890;BME280;75153;52.222;5.160;2024-01-30T02:22:17;102509.31;;;7.96;82.81
84890;BME280;75153;52.222;5.160;2024-01-30T02:24:44;102503.44;;;7.94;82.63
84890;BME280;75153;52.222;5.160;2024-01-30T02:27:09;102502.84;;;7.99;82.78
84890;BME280;75153;52.222;5.160;2024-01-30T02:29:35;102503.06;;;7.91;83.26
84890;BME280;75153;52.222;5.160;2024-01-30T02:32:00;102517.78;;;7.98;82.68
84890;BME280;75153;52.222;5.160;2024-01-30T02:34:25;102509.09;;;7.98;82.74
84890;BME280;75153;52.222;5.160;2024-01-30T02:36:51;102505.28;;;7.94;83.17
84890;BME280;75153;52.222;5.160;2024-01-30T02:39:16;102492.53;;;7.97;82.75
84890;BME280;75153;52.222;5.160;2024-01-30T02:41:41;102481.03;;;7.92;83.66
84890;BME280;75153;52.222;5.160;2024-01-30T02:44:07;102467.88;;;7.98;83.11
84890;BME280;75153;52.222;5.160;2024-01-30T02:46:32;102485.47;;;7.91;83.76
84890;BME280;75153;52.222;5.160;2024-01-30T02:48:57;102492.94;;;7.94;83.65
84890;BME280;75153;52.222;5.160;2024-01-30T02:51:23;102480.41;;;7.96;83.33
84890;BME280;75153;52.222;5.160;2024-01-30T02:53:48;102490.50;;;7.99;83.07
84890;BME280;75153;52.222;5.160;2024-01-30T02:56:13;102477.97;;;7.95;83.55
84890;BME280;75153;52.222;5.160;2024-01-30T02:58:39;102481.00;;;7.98;83.26
84890;BME280;75153;52.222;5.160;2024-01-30T03:01:06;102479.38;;;7.97;83.11
84890;BME280;75153;52.222;5.160;2024-01-30T03:03:31;102473.94;;;7.99;83.12
84890;BME280;75153;52.222;5.160;2024-01-30T03:05:57;102475.75;;;7.98;83.23
84890;BME280;75153;52.222;5.160;2024-01-30T03:08:22;102481.41;;;7.95;83.09
84890;BME280;75153;52.222;5.160;2024-01-30T03:10:48;102469.91;;;7.96;83.21
84890;BME280;75153;52.222;5.160;2024-01-30T03:13:13;102482.22;;;7.96;83.26
84890;BME280;75153;52.222;5.160;2024-01-30T03:15:38;102474.94;;;7.98;82.94
84890;BME280;75153;52.222;5.160;2024-01-30T03:18:04;102475.56;;;7.93;83.38
84890;BME280;75153;52.222;5.160;2024-01-30T03:20:30;102469.91;;;7.96;82.73
84890;BME280;75153;52.222;5.160;2024-01-30T03:22:55;102464.03;;;7.94;82.86
84890;BME280;75153;52.222;5.160;2024-01-30T03:25:21;102457.75;;;7.95;82.67
84890;BME280;75153;52.222;5.160;2024-01-30T03:27:46;102451.50;;;7.96;82.48
84890;BME280;75153;52.222;5.160;2024-01-30T03:30:12;102448.69;;;7.91;82.90
84890;BME280;75153;52.222;5.160;2024-01-30T03:32:37;102446.88;;;7.92;83.13
84890;BME280;75153;52.222;5.160;2024-01-30T03:35:03;102438.63;;;7.88;83.43
84890;BME280;75153;52.222;5.160;2024-01-30T03:37:29;102438.63;;;7.88;83.59
84890;BME280;75153;52.222;5.160;2024-01-30T03:39:54;102426.09;;;7.90;82.90
84890;BME280;75153;52.222;5.160;2024-01-30T03:42:19;102431.91;;;7.92;82.94
84890;BME280;75153;52.222;5.160;2024-01-30T03:44:45;102430.13;;;7.93;83.15
84890;BME280;75153;52.222;5.160;2024-01-30T03:47:10;102434.72;;;7.97;83.04
84890;BME280;75153;52.222;5.160;2024-01-30T03:49:36;102435.75;;;7.96;83.18
84890;BME280;75153;52.222;5.160;2024-01-30T03:52:01;102437.59;;;7.96;83.08
84890;BME280;75153;52.222;5.160;2024-01-30T03:54:26;102437.53;;;8.02;82.63
84890;BME280;75153;52.222;5.160;2024-01-30T03:56:52;102442.59;;;8.04;82.44
84890;BME280;75153;52.222;5.160;2024-01-30T03:59:17;102440.97;;;8.03;82.98
84890;BME280;75153;52.222;5.160;2024-01-30T04:01:47;102442.97;;;8.07;82.78
84890;BME280;75153;52.222;5.160;2024-01-30T04:04:12;102447.00;;;8.10;82.50
84890;BME280;75153;52.222;5.160;2024-01-30T04:06:38;102440.72;;;8.11;82.38
84890;BME280;75153;52.222;5.160;2024-01-30T04:09:03;102449.03;;;8.08;82.90
84890;BME280;75153;52.222;5.160;2024-01-30T04:11:28;102446.19;;;8.09;82.60
84890;BME280;75153;52.222;5.160;2024-01-30T04:13:54;102445.19;;;8.10;82.57
84890;BME280;75153;52.222;5.160;2024-01-30T04:16:23;102434.44;;;8.12;82.31
84890;BME280;75153;52.222;5.160;2024-01-30T04:18:48;102444.75;;;8.14;82.42
84890;BME280;75153;52.222;5.160;2024-01-30T04:21:14;102430.03;;;8.13;82.40
84890;BME280;75153;52.222;5.160;2024-01-30T04:23:40;102433.44;;;8.13;82.55
84890;BME280;75153;52.222;5.160;2024-01-30T04:26:06;102444.16;;;8.12;82.24
84890;BME280;75153;52.222;5.160;2024-01-30T04:28:31;102434.88;;;8.09;82.48
84890;BME280;75153;52.222;5.160;2024-01-30T04:30:56;102423.38;;;8.10;82.48
84890;BME280;75153;52.222;5.160;2024-01-30T04:33:22;102423.94;;;8.12;82.65
84890;BME280;75153;52.222;5.160;2024-01-30T04:35:47;102422.16;;;8.13;82.51
84890;BME280;75153;52.222;5.160;2024-01-30T04:38:12;102413.22;;;8.14;82.54
84890;BME280;75153;52.222;5.160;2024-01-30T04:40:40;102416.63;;;8.21;82.14
84890;BME280;75153;52.222;5.160;2024-01-30T04:43:05;102405.94;;;8.16;82.28
84890;BME280;75153;52.222;5.160;2024-01-30T04:45:31;102404.31;;;8.15;82.42
84890;BME280;75153;52.222;5.160;2024-01-30T04:47:56;102405.91;;;8.22;82.22
84890;BME280;75153;52.222;5.160;2024-01-30T04:50:22;102413.00;;;8.22;82.13
84890;BME280;75153;52.222;5.160;2024-01-30T04:52:48;102411.22;;;8.16;82.57
84890;BME280;75153;52.222;5.160;2024-01-30T04:55:13;102419.09;;;8.16;82.40
84890;BME280;75153;52.222;5.160;2024-01-30T04:57:39;102410.19;;;8.17;82.57
84890;BME280;75153;52.222;5.160;2024-01-30T05:00:05;102408.34;;;8.17;82.29
84890;BME280;75153;52.222;5.160;2024-01-30T05:02:30;102402.31;;;8.17;82.40
84890;BME280;75153;52.222;5.160;2024-01-30T05:04:56;102407.75;;;8.15;82.66
84890;BME280;75153;52.222;5.160;2024-01-30T05:07:21;102405.72;;;8.17;82.09
84890;BME280;75153;52.222;5.160;2024-01-30T05:09:47;102408.72;;;8.21;81.96
84890;BME280;75153;52.222;5.160;2024-01-30T05:12:12;102403.72;;;8.19;82.20
84890;BME280;75153;52.222;5.160;2024-01-30T05:14:37;102399.06;;;8.21;82.05
84890;BME280;75153;52.222;5.160;2024-01-30T05:17:03;102406.72;;;8.23;82.51
84890;BME280;75153;52.222;5.160;2024-01-30T05:19:28;102393.38;;;8.24;82.24
84890;BME280;75153;52.222;5.160;2024-01-30T05:21:54;102402.06;;;8.25;82.42
84890;BME280;75153;52.222;5.160;2024-01-30T05:24:19;102403.66;;;8.26;82.32
84890;BME280;75153;52.222;5.160;2024-01-30T05:26:44;102403.66;;;8.26;82.53
84890;BME280;75153;52.222;5.160;2024-01-30T05:29:10;102404.84;;;8.30;82.22
84890;BME280;75153;52.222;5.160;2024-01-30T05:31:36;102403.22;;;8.29;82.26
84890;BME280;75153;52.222;5.160;2024-01-30T05:34:01;102404.44;;;8.33;82.00
84890;BME280;75153;52.222;5.160;2024-01-30T05:36:27;102404.00;;;8.36;82.03
84890;BME280;75153;52.222;5.160;2024-01-30T05:38:52;102401.00;;;8.32;82.00
84890;BME280;75153;52.222;5.160;2024-01-30T05:41:18;102402.19;;;8.37;81.63
84890;BME280;75153;52.222;5.160;2024-01-30T05:43:44;102408.88;;;8.39;81.96
84890;BME280;75153;52.222;5.160;2024-01-30T05:46:09;102400.78;;;8.34;82.41
84890;BME280;75153;52.222;5.160;2024-01-30T05:48:34;102413.50;;;8.37;82.17
84890;BME280;75153;52.222;5.160;2024-01-30T05:51:01;102409.25;;;8.36;82.04
84890;BME280;75153;52.222;5.160;2024-01-30T05:53:26;102411.50;;;8.39;81.97
84890;BME280;75153;52.222;5.160;2024-01-30T05:55:52;102408.47;;;8.36;82.10
84890;BME280;75153;52.222;5.160;2024-01-30T05:58:18;102409.69;;;8.33;82.47
84890;BME280;75153;52.222;5.160;2024-01-30T06:00:43;102413.50;;;8.37;82.19
84890;BME280;75153;52.222;5.160;2024-01-30T06:03:08;102407.44;;;8.37;82.46
84890;BME280;75153;52.222;5.160;2024-01-30T06:05:34;102407.41;;;8.43;81.99
84890;BME280;75153;52.222;5.160;2024-01-30T06:07:59;102411.31;;;8.41;82.21
84890;BME280;75153;52.222;5.160;2024-01-30T06:10:25;102406.84;;;8.41;82.14
84890;BME280;75153;52.222;5.160;2024-01-30T06:12:50;102409.03;;;8.38;82.86
84890;BME280;75153;52.222;5.160;2024-01-30T06:15:15;102411.06;;;8.42;82.69
84890;BME280;75153;52.222;5.160;2024-01-30T06:17:41;102402.38;;;8.42;82.68
84890;BME280;75153;52.222;5.160;2024-01-30T06:20:06;102409.03;;;8.44;82.38
84890;BME280;75153;52.222;5.160;2024-01-30T06:22:32;102409.03;;;8.44;82.61
84890;BME280;75153;52.222;5.160;2024-01-30T06:24:58;102406.78;;;8.48;82.18
84890;BME280;75153;52.222;5.160;2024-01-30T06:27:23;102413.88;;;8.47;82.14
84890;BME280;75153;52.222;5.160;2024-01-30T06:29:48;102403.56;;;8.46;82.21
84890;BME280;75153;52.222;5.160;2024-01-30T06:32:14;102402.34;;;8.48;82.25
84890;BME280;75153;52.222;5.160;2024-01-30T06:34:41;102410.03;;;8.50;82.27
84890;BME280;75153;52.222;5.160;2024-01-30T06:37:06;102407.97;;;8.52;82.27
84890;BME280;75153;52.222;5.160;2024-01-30T06:39:32;102417.06;;;8.56;82.35
84890;BME280;75153;52.222;5.160;2024-01-30T06:41:57;102415.66;;;8.53;82.76
84890;BME280;75153;52.222;5.160;2024-01-30T06:44:22;102422.06;;;8.58;82.68
84890;BME280;75153;52.222;5.160;2024-01-30T06:46:48;102433.19;;;8.60;82.46
84890;BME280;75153;52.222;5.160;2024-01-30T06:49:13;102424.09;;;8.62;82.54
84890;BME280;75153;52.222;5.160;2024-01-30T06:51:38;102424.41;;;8.72;82.24
84890;BME280;75153;52.222;5.160;2024-01-30T06:54:04;102416.97;;;8.69;82.66
84890;BME280;75153;52.222;5.160;2024-01-30T06:56:29;102421.72;;;8.79;82.18
84890;BME280;75153;52.222;5.160;2024-01-30T06:58:55;102427.84;;;8.73;82.93
84890;BME280;75153;52.222;5.160;2024-01-30T07:01:20;102419.31;;;8.77;82.83
84890;BME280;75153;52.222;5.160;2024-01-30T07:03:46;102417.88;;;8.82;82.30
84890;BME280;75153;52.222;5.160;2024-01-30T07:06:12;102426.66;;;8.94;82.34
84890;BME280;75153;52.222;5.160;2024-01-30T07:08:37;102426.28;;;8.90;82.74
84890;BME280;75153;52.222;5.160;2024-01-30T07:11:06;102428.84;;;8.97;82.52
84890;BME280;75153;52.222;5.160;2024-01-30T07:13:31;102432.88;;;8.99;82.44
84890;BME280;75153;52.222;5.160;2024-01-30T07:15:57;102421.63;;;8.92;83.15
84890;BME280;75153;52.222;5.160;2024-01-30T07:18:22;102433.28;;;9.03;82.26
84890;BME280;75153;52.222;5.160;2024-01-30T07:20:48;102435.03;;;9.09;82.22
84890;BME280;75153;52.222;5.160;2024-01-30T07:23:15;102434.25;;;9.09;82.30
84890;BME280;75153;52.222;5.160;2024-01-30T07:25:43;102435.56;;;9.18;82.18
84890;BME280;75153;52.222;5.160;2024-01-30T07:28:08;102441.84;;;9.17;82.04
84890;BME280;75153;52.222;5.160;2024-01-30T07:30:35;102443.66;;;9.16;82.07
84890;BME280;75153;52.222;5.160;2024-01-30T07:33:00;102443.63;;;9.23;82.48
84890;BME280;75153;52.222;5.160;2024-01-30T07:35:26;102441.78;;;9.24;82.24
84890;BME280;75153;52.222;5.160;2024-01-30T07:37:51;102444.78;;;9.27;82.21
84890;BME280;75153;52.222;5.160;2024-01-30T07:40:17;102452.47;;;9.29;82.46
84890;BME280;75153;52.222;5.160;2024-01-30T07:42:42;102457.75;;;9.29;82.71
84890;BME280;75153;52.222;5.160;2024-01-30T07:45:08;102461.47;;;9.39;82.42
84890;BME280;75153;52.222;5.160;2024-01-30T07:47:33;102457.25;;;9.38;82.35
84890;BME280;75153;52.222;5.160;2024-01-30T07:49:59;102459.44;;;9.41;82.16
84890;BME280;75153;52.222;5.160;2024-01-30T07:52:24;102462.72;;;9.37;82.42
84890;BME280;75153;52.222;5.160;2024-01-30T07:54:50;102465.88;;;9.46;82.19
84890;BME280;75153;52.222;5.160;2024-01-30T07:57:16;102456.97;;;9.47;82.19
84890;BME280;75153;52.222;5.160;2024-01-30T07:59:43;102461.59;;;9.51;82.47
84890;BME280;75153;52.222;5.160;2024-01-30T08:02:10;102468.66;;;9.51;82.55
84890;BME280;75153;52.222;5.160;2024-01-30T08:04:35;102467.81;;;9.57;82.28
84890;BME280;75153;52.222;5.160;2024-01-30T08:07:01;102467.81;;;9.57;82.53
84890;BME280;75153;52.222;5.160;2024-01-30T08:09:26;102470.94;;;9.65;82.27
84890;BME280;75153;52.222;5.160;2024-01-30T08:11:52;102470.50;;;9.69;82.32
84890;BME280;75153;52.222;5.160;2024-01-30T08:14:17;102475.50;;;9.77;81.90
84890;BME280;75153;52.222;5.160;2024-01-30T08:16:42;102468.22;;;9.72;82.12
84890;BME280;75153;52.222;5.160;2024-01-30T08:19:08;102460.63;;;9.82;82.00
84890;BME280;75153;52.222;5.160;2024-01-30T08:21:33;102472.47;;;9.92;81.73
84890;BME280;75153;52.222;5.160;2024-01-30T08:24:05;102471.44;;;9.93;81.60
84890;BME280;75153;52.222;5.160;2024-01-30T08:26:31;102470.13;;;9.83;82.28
84890;BME280;75153;52.222;5.160;2024-01-30T08:28:57;102474.06;;;9.93;81.76
84890;BME280;75153;52.222;5.160;2024-01-30T08:31:22;102474.22;;;9.98;81.67
84890;BME280;75153;52.222;5.160;2024-01-30T08:33:48;102485.34;;;10.00;81.76
84890;BME280;75153;52.222;5.160;2024-01-30T08:36:13;102477.06;;;10.15;81.68
84890;BME280;75153;52.222;5.160;2024-01-30T08:38:39;102474.41;;;10.15;81.79
84890;BME280;75153;52.222;5.160;2024-01-30T08:41:04;102476.50;;;10.24;81.53
84890;BME280;75153;52.222;5.160;2024-01-30T08:43:30;102487.22;;;10.29;81.32
84890;BME280;75153;52.222;5.160;2024-01-30T08:45:59;102480.34;;;10.28;81.41
84890;BME280;75153;52.222;5.160;2024-01-30T08:48:25;102487.22;;;10.29;81.41
84890;BME280;75153;52.222;5.160;2024-01-30T08:50:50;102480.34;;;10.28;81.41
84890;BME280;75153;52.222;5.160;2024-01-30T08:53:16;102474.97;;;10.35;81.14
84890;BME280;75153;52.222;5.160;2024-01-30T08:55:41;102477.97;;;10.39;81.10
84890;BME280;75153;52.222;5.160;2024-01-30T08:58:06;102482.09;;;10.34;81.23
84890;BME280;75153;52.222;5.160;2024-01-30T09:00:32;102475.56;;;10.37;80.85
84890;BME280;75153;52.222;5.160;2024-01-30T09:02:57;102482.00;;;10.41;80.99
84890;BME280;75153;52.222;5.160;2024-01-30T09:05:22;102475.25;;;10.45;80.59
84890;BME280;75153;52.222;5.160;2024-01-30T09:07:48;102486.47;;;10.41;80.84
84890;BME280;75153;52.222;5.160;2024-01-30T09:10:13;102483.75;;;10.47;80.71
84890;BME280;75153;52.222;5.160;2024-01-30T09:12:39;102491.00;;;10.52;80.84
84890;BME280;75153;52.222;5.160;2024-01-30T09:15:04;102485.56;;;10.47;80.91
84890;BME280;75153;52.222;5.160;2024-01-30T09:17:30;102480.19;;;10.42;81.15
84890;BME280;75153;52.222;5.160;2024-01-30T09:19:56;102486.41;;;10.47;80.80
84890;BME280;75153;52.222;5.160;2024-01-30T09:22:21;102499.31;;;10.37;81.39
84890;BME280;75153;52.222;5.160;2024-01-30T09:24:46;102505.66;;;10.48;80.90
84890;BME280;75153;52.222;5.160;2024-01-30T09:27:12;102497.31;;;10.51;81.00
84890;BME280;75153;52.222;5.160;2024-01-30T09:29:37;102501.63;;;10.45;81.28
84890;BME280;75153;52.222;5.160;2024-01-30T09:32:04;102499.03;;;10.57;80.74
84890;BME280;75153;52.222;5.160;2024-01-30T09:34:29;102499.13;;;10.50;81.81
84890;BME280;75153;52.222;5.160;2024-01-30T09:36:54;102499.50;;;10.54;81.09
84890;BME280;75153;52.222;5.160;2024-01-30T09:39:20;102503.13;;;10.53;81.27
84890;BME280;75153;52.222;5.160;2024-01-30T09:41:49;102501.44;;;10.59;80.99
84890;BME280;75153;52.222;5.160;2024-01-30T09:44:19;102502.03;;;10.61;81.05
84890;BME280;75153;52.222;5.160;2024-01-30T09:46:46;102505.00;;;10.64;80.51
84890;BME280;75153;52.222;5.160;2024-01-30T09:49:13;102503.75;;;10.67;80.86
84890;BME280;75153;52.222;5.160;2024-01-30T09:51:39;102502.50;;;10.69;80.40
84890;BME280;75153;52.222;5.160;2024-01-30T09:54:07;102512.03;;;10.70;80.37
84890;BME280;75153;52.222;5.160;2024-01-30T09:56:33;102512.38;;;10.62;81.04
84890;BME280;75153;52.222;5.160;2024-01-30T09:58:58;102517.19;;;10.65;80.68
84890;BME280;75153;52.222;5.160;2024-01-30T10:01:25;102517.88;;;10.72;80.71
84890;BME280;75153;52.222;5.160;2024-01-30T10:03:50;102515.69;;;10.69;80.70
84890;BME280;75153;52.222;5.160;2024-01-30T10:06:18;102527.91;;;10.82;80.46
84890;BME280;75153;52.222;5.160;2024-01-30T10:08:43;102511.75;;;11.02;79.37
84890;BME280;75153;52.222;5.160;2024-01-30T10:11:09;102522.78;;;10.99;79.52
84890;BME280;75153;52.222;5.160;2024-01-30T10:13:35;102513.94;;;11.05;78.77
84890;BME280;75153;52.222;5.160;2024-01-30T10:16:00;102522.78;;;10.99;78.90
84890;BME280;75153;52.222;5.160;2024-01-30T10:18:28;102534.03;;;11.06;78.96
84890;BME280;75153;52.222;5.160;2024-01-30T10:20:54;102539.75;;;11.03;79.03
84890;BME280;75153;52.222;5.160;2024-01-30T10:23:19;102523.78;;;10.98;78.70
84890;BME280;75153;52.222;5.160;2024-01-30T10:25:45;102519.88;;;10.89;79.16
84890;BME280;75153;52.222;5.160;2024-01-30T10:28:11;102518.94;;;10.83;79.16
84890;BME280;75153;52.222;5.160;2024-01-30T10:30:36;102521.44;;;10.78;79.39
84890;BME280;75153;52.222;5.160;2024-01-30T10:33:02;102533.16;;;10.70;79.00
84890;BME280;75153;52.222;5.160;2024-01-30T10:35:27;102545.13;;;10.54;79.37
84890;BME280;75153;52.222;5.160;2024-01-30T10:37:56;102537.38;;;10.41;79.46
84890;BME280;75153;52.222;5.160;2024-01-30T10:40:27;102539.47;;;10.39;79.72
84890;BME280;75153;52.222;5.160;2024-01-30T10:42:55;102538.41;;;10.40;79.58
84890;BME280;75153;52.222;5.160;2024-01-30T10:45:21;102545.09;;;10.43;79.01
84890;BME280;75153;52.222;5.160;2024-01-30T10:47:49;102555.19;;;10.27;79.79
84890;BME280;75153;52.222;5.160;2024-01-30T10:50:15;102547.66;;;10.31;79.12
84890;BME280;75153;52.222;5.160;2024-01-30T10:52:41;102571.66;;;10.23;79.73
84890;BME280;75153;52.222;5.160;2024-01-30T10:55:10;102565.28;;;10.12;79.85
84890;BME280;75153;52.222;5.160;2024-01-30T10:57:36;102568.16;;;10.29;79.26
84890;BME280;75153;52.222;5.160;2024-01-30T11:00:05;102574.50;;;10.21;79.10
84890;BME280;75153;52.222;5.160;2024-01-30T11:02:37;102582.22;;;10.23;78.40
84890;BME280;75153;52.222;5.160;2024-01-30T11:05:04;102572.66;;;10.22;77.97
84890;BME280;75153;52.222;5.160;2024-01-30T11:07:30;102575.25;;;10.10;77.72
84890;BME280;75153;52.222;5.160;2024-01-30T11:12:25;102586.06;;;10.02;77.09
84890;BME280;75153;52.222;5.160;2024-01-30T11:15:12;102583.44;;;10.02;76.96
84890;BME280;75153;52.222;5.160;2024-01-30T11:20:30;102588.13;;;10.00;76.52
84890;BME280;75153;52.222;5.160;2024-01-30T11:23:01;102577.16;;;10.03;76.22
84890;BME280;75153;52.222;5.160;2024-01-30T11:25:31;102568.41;;;9.84;76.93
84890;BME280;75153;52.222;5.160;2024-01-30T11:27:57;102580.63;;;9.78;76.37
84890;BME280;75153;52.222;5.160;2024-01-30T11:32:59;102578.84;;;9.97;75.21
84890;BME280;75153;52.222;5.160;2024-01-30T11:35:25;102587.66;;;9.84;75.56
84890;BME280;75153;52.222;5.160;2024-01-30T11:37:51;102585.19;;;9.89;75.18
84890;BME280;75153;52.222;5.160;2024-01-30T11:40:16;102596.53;;;9.90;74.82
84890;BME280;75153;52.222;5.160;2024-01-30T11:42:42;102584.88;;;9.79;75.34
84890;BME280;75153;52.222;5.160;2024-01-30T11:45:07;102591.25;;;9.72;75.39
84890;BME280;75153;52.222;5.160;2024-01-30T11:47:35;102597.25;;;9.79;75.78
84890;BME280;75153;52.222;5.160;2024-01-30T11:50:01;102590.75;;;9.81;75.82
84890;BME280;75153;52.222;5.160;2024-01-30T11:52:29;102588.25;;;9.86;75.39
84890;BME280;75153;52.222;5.160;2024-01-30T11:54:54;102595.84;;;9.76;76.10
84890;BME280;75153;52.222;5.160;2024-01-30T11:57:19;102606.88;;;9.41;77.30
84890;BME280;75153;52.222;5.160;2024-01-30T11:59:45;102602.59;;;9.47;77.48
84890;BME280;75153;52.222;5.160;2024-01-30T12:02:15;102607.41;;;9.25;77.70
84890;BME280;75153;52.222;5.160;2024-01-30T12:04:40;102603.34;;;9.54;76.88
84890;BME280;75153;52.222;5.160;2024-01-30T12:07:06;102600.34;;;9.19;76.99
84890;BME280;75153;52.222;5.160;2024-01-30T12:09:32;102605.28;;;9.40;76.79
84890;BME280;75153;52.222;5.160;2024-01-30T12:11:57;102619.84;;;9.43;76.26
84890;BME280;75153;52.222;5.160;2024-01-30T12:14:23;102614.03;;;9.34;75.71
84890;BME280;75153;52.222;5.160;2024-01-30T12:16:50;102615.00;;;9.40;75.69
84890;BME280;75153;52.222;5.160;2024-01-30T12:19:25;102618.19;;;9.49;75.94
84890;BME280;75153;52.222;5.160;2024-01-30T12:21:57;102626.50;;;9.46;76.17
84890;BME280;75153;52.222;5.160;2024-01-30T12:24:27;102621.38;;;9.51;75.59
84890;BME280;75153;52.222;5.160;2024-01-30T12:26:57;102626.25;;;9.22;76.78
84890;BME280;75153;52.222;5.160;2024-01-30T12:29:22;102628.19;;;9.40;76.14
84890;BME280;75153;52.222;5.160;2024-01-30T12:31:47;102621.94;;;9.34;76.80
84890;BME280;75153;52.222;5.160;2024-01-30T12:34:16;102623.53;;;9.35;76.83
84890;BME280;75153;52.222;5.160;2024-01-30T12:36:43;102612.63;;;9.32;76.89
84890;BME280;75153;52.222;5.160;2024-01-30T12:39:11;102619.97;;;9.23;77.45
84890;BME280;75153;52.222;5.160;2024-01-30T12:41:38;102625.41;;;9.28;77.25
84890;BME280;75153;52.222;5.160;2024-01-30T12:44:03;102628.44;;;9.32;77.25
84890;BME280;75153;52.222;5.160;2024-01-30T12:46:28;102629.66;;;9.29;77.48
84890;BME280;75153;52.222;5.160;2024-01-30T12:48:54;102620.56;;;9.25;77.77
84890;BME280;75153;52.222;5.160;2024-01-30T12:51:19;102642.38;;;9.01;78.96
84890;BME280;75153;52.222;5.160;2024-01-30T12:53:45;102638.56;;;9.28;78.40
84890;BME280;75153;52.222;5.160;2024-01-30T12:56:13;102634.94;;;9.29;78.85
84890;BME280;75153;52.222;5.160;2024-01-30T12:58:38;102629.72;;;9.16;79.12